createdAt,value
2023-04-20T00:00:40.284Z,29.27
2023-04-20T00:01:42.109Z,28.80
2023-04-20T00:02:43.965Z,31.33
2023-04-20T00:03:45.542Z,31.80
2023-04-20T00:04:47.314Z,35.40
2023-04-20T00:05:51.892Z,33.78
2023-04-20T00:06:54.066Z,30.25
2023-04-20T00:07:55.470Z,30.55
2023-04-20T00:08:56.928Z,31.98
2023-04-20T00:09:58.431Z,31.73
2023-04-20T00:10:59.914Z,29.65
2023-04-20T00:12:01.808Z,29.48
2023-04-20T00:13:03.220Z,30.70
2023-04-20T00:14:05.016Z,30.42
2023-04-20T00:15:07.133Z,32.67
2023-04-20T00:16:08.553Z,33.47
2023-04-20T00:17:09.992Z,27.58
2023-04-20T00:18:11.564Z,30.05
2023-04-20T00:19:12.993Z,28.00
2023-04-20T00:20:15.396Z,32.25
2023-04-20T00:21:16.984Z,30.95
2023-04-20T00:22:18.395Z,32.88
2023-04-20T00:23:19.826Z,30.70
2023-04-20T00:24:21.723Z,32.15
2023-04-20T00:25:23.122Z,30.25
2023-04-20T00:26:24.636Z,33.63
2023-04-20T00:27:26.088Z,28.70
2023-04-20T00:28:27.495Z,28.30
2023-04-20T00:29:29.000Z,22.55
2023-04-20T00:30:30.433Z,25.92
2023-04-20T00:31:31.932Z,27.42
2023-04-20T00:32:33.690Z,29.98
2023-04-20T00:33:35.363Z,28.08
2023-04-20T00:34:37.063Z,26.65
2023-04-20T00:35:38.494Z,27.73
2023-04-20T00:36:39.979Z,26.67
2023-04-20T00:37:41.484Z,26.90
2023-04-20T00:38:42.990Z,26.70
2023-04-20T00:39:44.413Z,28.38
2023-04-20T00:40:48.904Z,29.33
2023-04-20T00:41:50.383Z,28.33
2023-04-20T00:42:51.833Z,24.60
2023-04-20T00:43:54.216Z,28.33
2023-04-20T00:44:55.794Z,25.73
2023-04-20T00:45:57.315Z,27.73
2023-04-20T00:46:59.034Z,29.00
2023-04-20T00:48:00.585Z,25.90
2023-04-20T00:49:02.059Z,28.35
2023-04-20T00:50:03.915Z,27.83
2023-04-20T00:51:05.498Z,25.80
2023-04-20T00:52:07.011Z,27.75
2023-04-20T00:53:09.130Z,27.55
2023-04-20T00:54:11.429Z,28.05
2023-04-20T00:55:12.935Z,28.90
2023-04-20T00:56:19.443Z,27.70
2023-04-20T00:57:23.855Z,29.10
2023-04-20T00:58:25.459Z,26.67
2023-04-20T00:59:27.023Z,28.27
2023-04-20T01:00:28.631Z,30.98
2023-04-20T01:01:31.750Z,27.02
2023-04-20T01:02:33.334Z,24.95
2023-04-20T01:03:36.050Z,27.42
2023-04-20T01:04:37.793Z,25.45
2023-04-20T01:05:39.449Z,26.83
2023-04-20T01:06:40.964Z,25.15
2023-04-20T01:07:42.402Z,26.40
2023-04-20T01:08:51.995Z,27.30
2023-04-20T01:09:53.417Z,25.27
2023-04-20T01:10:56.092Z,26.73
2023-04-20T01:11:57.518Z,22.63
2023-04-20T01:12:58.982Z,26.10
2023-04-20T01:14:00.857Z,27.08
2023-04-20T01:15:05.693Z,23.67
2023-04-20T01:16:07.869Z,26.90
2023-04-20T01:17:09.584Z,22.38
2023-04-20T01:18:11.699Z,26.17
2023-04-20T01:20:15.166Z,23.95
2023-04-20T01:21:18.773Z,23.40
2023-04-20T01:22:21.197Z,22.65
2023-04-20T01:23:22.996Z,23.08
2023-04-20T01:24:24.403Z,28.55
2023-04-20T01:25:26.050Z,26.48
2023-04-20T01:26:27.490Z,27.88
2023-04-20T01:27:28.880Z,32.97
2023-04-20T01:28:31.239Z,29.85
2023-04-20T01:29:33.747Z,30.65
2023-04-20T01:30:35.276Z,32.10
2023-04-20T01:31:36.791Z,31.05
2023-04-20T01:32:39.353Z,30.25
2023-04-20T01:33:41.568Z,29.13
2023-04-20T01:34:43.024Z,28.98
2023-04-20T01:35:44.456Z,30.20
2023-04-20T01:36:46.115Z,28.88
2023-04-20T01:37:47.578Z,29.67
2023-04-20T01:38:49.379Z,27.15
2023-04-20T01:39:50.879Z,25.45
2023-04-20T01:40:54.292Z,26.10
2023-04-20T01:41:56.455Z,29.70
2023-04-20T01:42:57.996Z,26.27
2023-04-20T01:43:59.417Z,28.75
2023-04-20T01:45:00.925Z,28.85
2023-04-20T01:46:02.731Z,26.48
2023-04-20T01:47:04.294Z,24.67
2023-04-20T01:48:06.076Z,23.50
2023-04-20T01:49:08.038Z,24.48
2023-04-20T01:50:09.721Z,26.40
2023-04-20T01:51:11.146Z,26.83
2023-04-20T01:52:12.620Z,25.83
2023-04-20T01:53:14.093Z,27.25
2023-04-20T01:54:15.561Z,29.17
2023-04-20T01:55:19.509Z,31.77
2023-04-20T01:56:21.468Z,22.83
2023-04-20T01:57:22.854Z,23.67
2023-04-20T01:58:24.267Z,23.77
2023-04-20T01:59:25.658Z,23.10
2023-04-20T02:00:27.111Z,22.98
2023-04-20T02:01:28.798Z,24.35
2023-04-20T02:02:30.438Z,27.33
2023-04-20T02:03:32.055Z,26.60
2023-04-20T02:04:33.774Z,28.80
2023-04-20T02:05:35.362Z,22.65
2023-04-20T02:06:36.777Z,24.85
2023-04-20T02:07:38.215Z,27.60
2023-04-20T02:08:39.624Z,26.50
2023-04-20T02:09:41.063Z,24.42
2023-04-20T02:10:42.507Z,25.23
2023-04-20T02:11:44.192Z,25.40
2023-04-20T02:12:46.097Z,26.77
2023-04-20T02:13:50.613Z,27.77
2023-04-20T02:14:52.002Z,24.48
2023-04-20T02:15:53.755Z,24.75
2023-04-20T02:16:55.380Z,25.88
2023-04-20T02:17:57.279Z,27.85
2023-04-20T02:18:58.769Z,24.60
2023-04-20T02:20:00.208Z,26.20
2023-04-20T02:21:01.702Z,25.58
2023-04-20T02:22:03.456Z,26.50
2023-04-20T02:23:04.907Z,27.98
2023-04-20T02:24:06.688Z,24.83
2023-04-20T02:25:08.862Z,24.05
2023-04-20T02:26:10.335Z,24.13
2023-04-20T02:27:11.791Z,28.48
2023-04-20T02:28:13.233Z,27.98
2023-04-20T02:29:14.768Z,26.40
2023-04-20T02:30:16.478Z,24.48
2023-04-20T02:31:17.960Z,27.00
2023-04-20T02:32:19.579Z,25.58
2023-04-20T02:33:21.693Z,27.73
2023-04-20T02:35:24.813Z,24.17
2023-04-20T02:36:26.962Z,29.30
2023-04-20T02:38:29.778Z,28.75
2023-04-20T02:39:31.191Z,27.60
2023-04-20T02:40:32.630Z,27.48
2023-04-20T02:41:34.030Z,28.75
2023-04-20T02:42:35.604Z,29.77
2023-04-20T02:43:37.110Z,31.38
2023-04-20T02:44:38.545Z,31.17
2023-04-20T02:45:40.010Z,29.13
2023-04-20T02:46:41.499Z,33.50
2023-04-20T02:47:43.149Z,29.73
2023-04-20T02:48:44.646Z,28.17
2023-04-20T02:49:46.098Z,31.10
2023-04-20T02:50:47.481Z,30.38
2023-04-20T02:51:49.002Z,29.98
2023-04-20T02:52:50.594Z,29.60
2023-04-20T02:53:52.025Z,31.90
2023-04-20T02:54:53.600Z,29.42
2023-04-20T02:55:55.123Z,34.28
2023-04-20T02:56:58.124Z,30.25
2023-04-20T02:57:59.594Z,30.42
2023-04-20T02:59:00.995Z,30.83
2023-04-20T03:00:02.483Z,32.00
2023-04-20T03:01:07.153Z,30.45
2023-04-20T03:02:08.664Z,30.10
2023-04-20T03:03:11.240Z,32.97
2023-04-20T03:04:13.277Z,28.73
2023-04-20T03:05:15.077Z,32.10
2023-04-20T03:06:16.594Z,31.83
2023-04-20T03:07:18.382Z,29.42
2023-04-20T03:08:19.802Z,30.48
2023-04-20T03:09:21.315Z,31.77
2023-04-20T03:10:24.466Z,31.02
2023-04-20T03:11:26.040Z,29.50
2023-04-20T03:12:27.437Z,32.13
2023-04-20T03:13:28.843Z,31.77
2023-04-20T03:14:30.886Z,32.20
2023-04-20T03:16:33.698Z,31.23
2023-04-20T03:17:35.296Z,30.73
2023-04-20T03:18:36.752Z,31.38
2023-04-20T03:19:38.160Z,32.63
2023-04-20T03:20:40.290Z,33.63
2023-04-20T03:21:41.753Z,31.92
2023-04-20T03:22:43.222Z,31.75
2023-04-20T03:23:44.713Z,32.85
2023-04-20T03:24:47.633Z,34.67
2023-04-20T03:25:49.246Z,31.52
2023-04-20T03:26:50.742Z,32.67
2023-04-20T03:27:52.193Z,32.45
2023-04-20T03:28:53.694Z,33.33
2023-04-20T03:29:55.201Z,34.67
2023-04-20T03:30:56.641Z,34.33
2023-04-20T03:31:58.096Z,34.90
2023-04-20T03:32:59.583Z,35.88
2023-04-20T03:34:01.143Z,32.60
2023-04-20T03:35:02.541Z,30.42
2023-04-20T03:36:05.767Z,31.58
2023-04-20T03:37:07.206Z,32.45
2023-04-20T03:38:09.002Z,31.23
2023-04-20T03:39:10.567Z,30.23
2023-04-20T03:40:12.709Z,34.53
2023-04-20T03:41:14.642Z,30.08
2023-04-20T03:42:16.179Z,33.30
2023-04-20T03:43:17.607Z,30.70
2023-04-20T03:44:19.002Z,32.65
2023-04-20T03:45:20.499Z,32.67
2023-04-20T03:46:23.185Z,34.95
2023-04-20T03:47:25.004Z,32.50
2023-04-20T03:48:26.501Z,35.40
2023-04-20T03:49:29.634Z,31.85
2023-04-20T03:50:31.103Z,35.63
2023-04-20T03:51:32.728Z,30.83
2023-04-20T03:52:34.195Z,33.05
2023-04-20T03:53:37.473Z,31.40
2023-04-20T03:54:40.557Z,35.53
2023-04-20T03:55:42.001Z,36.10
2023-04-20T03:56:45.884Z,32.17
2023-04-20T03:57:47.943Z,32.42
2023-04-20T03:59:50.935Z,31.02
2023-04-20T04:00:52.360Z,31.00
2023-04-20T04:01:54.668Z,32.35
2023-04-20T04:02:56.408Z,34.90
2023-04-20T04:03:58.109Z,36.20
2023-04-20T04:04:59.757Z,36.88
2023-04-20T04:06:01.616Z,40.92
2023-04-20T04:07:03.169Z,36.55
2023-04-20T04:08:04.696Z,36.70
2023-04-20T04:09:06.173Z,34.65
2023-04-20T04:10:08.039Z,34.63
2023-04-20T04:11:09.580Z,33.30
2023-04-20T04:12:11.056Z,36.45
2023-04-20T04:13:12.526Z,36.38
2023-04-20T04:14:13.911Z,32.28
2023-04-20T04:15:15.686Z,35.90
2023-04-20T04:16:17.107Z,35.05
2023-04-20T04:17:18.561Z,34.53
2023-04-20T04:18:21.660Z,33.60
2023-04-20T04:19:23.170Z,36.25
2023-04-20T04:20:24.632Z,35.20
2023-04-20T04:21:26.081Z,40.33
2023-04-20T04:22:29.930Z,37.55
2023-04-20T04:23:31.886Z,35.13
2023-04-20T04:24:33.592Z,34.13
2023-04-20T04:25:38.393Z,32.75
2023-04-20T04:26:39.895Z,36.97
2023-04-20T04:27:41.301Z,35.53
2023-04-20T04:28:45.780Z,33.28
2023-04-20T04:29:47.231Z,32.80
2023-04-20T04:30:48.621Z,35.75
2023-04-20T04:31:50.114Z,38.10
2023-04-20T04:32:51.729Z,38.50
2023-04-20T04:33:53.222Z,36.65
2023-04-20T04:34:55.450Z,34.53
2023-04-20T04:35:57.418Z,36.65
2023-04-20T04:38:00.940Z,38.50
2023-04-20T04:39:02.402Z,35.83
2023-04-20T04:40:07.255Z,35.35
2023-04-20T04:41:08.698Z,40.15
2023-04-20T04:42:10.156Z,38.80
2023-04-20T04:43:12.069Z,40.22
2023-04-20T04:44:13.535Z,44.35
2023-04-20T04:45:15.004Z,41.65
2023-04-20T04:46:16.451Z,43.42
2023-04-20T04:47:19.840Z,38.67
2023-04-20T04:48:21.255Z,36.38
2023-04-20T04:49:24.536Z,35.92
2023-04-20T04:50:26.097Z,39.83
2023-04-20T04:51:27.472Z,40.90
2023-04-20T04:52:28.899Z,43.55
2023-04-20T04:53:30.722Z,41.00
2023-04-20T04:54:32.152Z,38.47
2023-04-20T04:55:33.575Z,39.72
2023-04-20T04:56:35.002Z,44.90
2023-04-20T04:57:38.390Z,41.38
2023-04-20T04:58:39.949Z,44.35
2023-04-20T04:59:41.578Z,40.17
2023-04-20T05:00:43.035Z,42.00
2023-04-20T05:01:44.540Z,44.17
2023-04-20T05:02:46.171Z,44.58
2023-04-20T05:03:47.944Z,49.47
2023-04-20T05:04:49.555Z,44.17
2023-04-20T05:05:51.081Z,46.00
2023-04-20T05:06:52.572Z,51.80
2023-04-20T05:07:54.048Z,41.03
2023-04-20T05:08:55.653Z,45.85
2023-04-20T05:09:57.125Z,42.13
2023-04-20T05:10:58.507Z,48.80
2023-04-20T05:12:03.817Z,46.78
2023-04-20T05:13:05.276Z,48.22
2023-04-20T05:14:06.782Z,47.17
2023-04-20T05:15:08.664Z,47.60
2023-04-20T05:16:10.163Z,39.67
2023-04-20T05:17:11.856Z,40.90
2023-04-20T05:18:13.277Z,39.72
2023-04-20T05:19:14.765Z,38.63
2023-04-20T05:20:16.423Z,38.22
2023-04-20T05:21:17.819Z,44.80
2023-04-20T05:22:19.243Z,45.53
2023-04-20T05:23:20.788Z,45.97
2023-04-20T05:24:22.171Z,44.60
2023-04-20T05:25:23.688Z,41.40
2023-04-20T05:26:25.313Z,44.05
2023-04-20T05:27:26.729Z,44.65
2023-04-20T05:28:28.192Z,40.00
2023-04-20T05:29:29.862Z,45.60
2023-04-20T05:30:31.366Z,44.33
2023-04-20T05:31:33.331Z,42.78
2023-04-20T05:33:36.248Z,39.90
2023-04-20T05:34:37.672Z,43.70
2023-04-20T05:35:41.008Z,41.65
2023-04-20T05:36:42.472Z,45.70
2023-04-20T05:37:44.093Z,43.80
2023-04-20T05:38:45.806Z,39.22
2023-04-20T05:39:47.222Z,38.42
2023-04-20T05:40:50.291Z,37.70
2023-04-20T05:41:52.074Z,36.13
2023-04-20T05:42:53.558Z,40.13
2023-04-20T05:43:56.817Z,35.80
2023-04-20T05:44:58.220Z,33.97
2023-04-20T05:45:59.742Z,37.85
2023-04-20T05:47:01.222Z,35.97
2023-04-20T05:48:02.878Z,36.63
2023-04-20T05:49:04.867Z,37.33
2023-04-20T05:50:07.101Z,36.28
2023-04-20T05:51:08.529Z,34.75
2023-04-20T05:52:09.924Z,38.63
2023-04-20T05:53:11.452Z,38.05
2023-04-20T05:54:12.932Z,36.17
2023-04-20T05:55:17.078Z,39.88
2023-04-20T05:56:19.463Z,37.70
2023-04-20T05:57:21.829Z,39.20
2023-04-20T05:58:23.476Z,42.10
2023-04-20T05:59:26.234Z,40.50
2023-04-20T06:00:27.805Z,39.70
2023-04-20T06:01:29.304Z,40.97
2023-04-20T06:02:30.810Z,39.13
2023-04-20T06:03:32.668Z,34.63
2023-04-20T06:05:36.116Z,36.80
2023-04-20T06:06:38.398Z,34.45
2023-04-20T06:07:40.374Z,42.13
2023-04-20T06:08:42.135Z,39.20
2023-04-20T06:09:43.563Z,41.25
2023-04-20T06:10:45.492Z,36.30
2023-04-20T06:11:46.939Z,38.83
2023-04-20T06:12:48.415Z,37.72
2023-04-20T06:13:49.841Z,36.83
2023-04-20T06:14:51.270Z,38.20
2023-04-20T06:15:53.909Z,37.85
2023-04-20T06:16:55.721Z,37.45
2023-04-20T06:17:57.345Z,39.53
2023-04-20T06:18:58.809Z,37.80
2023-04-20T06:20:00.242Z,36.47
2023-04-20T06:21:02.077Z,40.33
2023-04-20T06:22:09.675Z,40.30
2023-04-20T06:23:11.825Z,33.13
2023-04-20T06:24:13.302Z,37.55
2023-04-20T06:25:18.197Z,34.50
2023-04-20T06:26:19.604Z,35.72
2023-04-20T06:27:21.027Z,32.70
2023-04-20T06:28:22.494Z,38.55
2023-04-20T06:29:24.191Z,34.50
2023-04-20T06:30:25.825Z,36.78
2023-04-20T06:31:27.306Z,35.88
2023-04-20T06:32:28.856Z,41.20
2023-04-20T06:33:30.539Z,39.60
2023-04-20T06:34:31.952Z,41.50
2023-04-20T06:35:33.403Z,38.83
2023-04-20T06:36:34.837Z,39.70
2023-04-20T06:37:36.655Z,36.83
2023-04-20T06:38:38.183Z,35.33
2023-04-20T06:39:39.581Z,39.88
2023-04-20T06:40:41.031Z,34.45
2023-04-20T06:41:42.528Z,39.47
2023-04-20T06:42:43.958Z,34.85
2023-04-20T06:43:46.190Z,38.78
2023-04-20T06:44:47.603Z,37.97
2023-04-20T06:45:49.028Z,39.10
2023-04-20T06:46:50.688Z,40.30
2023-04-20T06:47:52.221Z,39.60
2023-04-20T06:48:53.771Z,41.42
2023-04-20T06:49:55.185Z,41.85
2023-04-20T06:50:56.584Z,40.50
2023-04-20T06:51:58.079Z,35.83
2023-04-20T06:52:59.491Z,35.60
2023-04-20T06:54:00.957Z,36.92
2023-04-20T06:55:02.421Z,43.22
2023-04-20T06:56:03.958Z,35.00
2023-04-20T06:57:05.504Z,33.65
2023-04-20T06:58:06.978Z,35.70
2023-04-20T06:59:08.422Z,30.90
2023-04-20T07:00:11.361Z,35.47
2023-04-20T07:01:13.012Z,34.97
2023-04-20T07:02:14.900Z,34.78
2023-04-20T07:03:18.783Z,35.20
2023-04-20T07:04:20.734Z,31.58
2023-04-20T07:05:22.475Z,35.67
2023-04-20T07:06:25.216Z,34.03
2023-04-20T07:07:26.611Z,39.88
2023-04-20T07:08:28.119Z,36.03
2023-04-20T07:09:29.560Z,31.55
2023-04-20T07:10:30.968Z,31.27
2023-04-20T07:11:32.481Z,30.55
2023-04-20T07:12:36.028Z,30.98
2023-04-20T07:13:37.511Z,33.63
2023-04-20T07:14:38.988Z,32.60
2023-04-20T07:15:40.479Z,29.15
2023-04-20T07:16:42.021Z,28.90
2023-04-20T07:17:43.537Z,30.42
2023-04-20T07:18:45.077Z,29.95
2023-04-20T07:19:46.576Z,32.60
2023-04-20T07:20:47.994Z,33.40
2023-04-20T07:21:49.427Z,32.47
2023-04-20T07:22:50.858Z,29.88
2023-04-20T07:23:52.395Z,30.25
2023-04-20T07:24:54.003Z,30.52
2023-04-20T07:25:55.586Z,34.47
2023-04-20T07:26:57.176Z,30.80
2023-04-20T07:27:58.813Z,32.83
2023-04-20T07:29:00.254Z,30.77
2023-04-20T07:30:02.116Z,30.98
2023-04-20T07:31:03.562Z,30.42
2023-04-20T07:32:05.418Z,31.77
2023-04-20T07:33:07.331Z,35.83
2023-04-20T07:35:10.794Z,29.42
2023-04-20T07:36:12.248Z,31.45
2023-04-20T07:37:13.707Z,32.10
2023-04-20T07:38:15.532Z,30.23
2023-04-20T07:39:17.327Z,29.63
2023-04-20T07:41:22.986Z,30.40
2023-04-20T07:42:24.446Z,30.42
2023-04-20T07:43:25.921Z,28.63
2023-04-20T07:44:27.436Z,27.52
2023-04-20T07:45:28.989Z,29.42
2023-04-20T07:46:30.767Z,30.70
2023-04-20T07:47:34.109Z,29.98
2023-04-20T07:48:35.671Z,32.85
2023-04-20T07:49:38.052Z,31.75
2023-04-20T07:50:39.897Z,30.10
2023-04-20T07:51:41.576Z,31.77
2023-04-20T07:52:44.398Z,31.48
2023-04-20T07:53:45.852Z,27.73
2023-04-20T07:54:47.677Z,27.98
2023-04-20T07:55:50.832Z,27.42
2023-04-20T07:56:53.337Z,27.92
2023-04-20T07:57:54.787Z,28.83
2023-04-20T07:58:56.365Z,23.08
2023-04-20T07:59:57.950Z,30.92
2023-04-20T08:00:59.629Z,29.40
2023-04-20T08:02:02.093Z,28.38
2023-04-20T08:03:05.150Z,28.92
2023-04-20T08:04:06.866Z,26.95
2023-04-20T08:05:10.367Z,27.98
2023-04-20T08:06:12.154Z,31.25
2023-04-20T08:07:14.158Z,27.02
2023-04-20T08:09:19.453Z,28.90
2023-04-20T08:10:21.606Z,28.13
2023-04-20T08:11:24.420Z,26.08
2023-04-20T08:12:25.815Z,27.30
2023-04-20T08:13:30.745Z,26.33
2023-04-20T08:14:33.583Z,27.08
2023-04-20T08:15:35.008Z,26.60
2023-04-20T08:16:36.425Z,25.45
2023-04-20T08:17:37.943Z,23.75
2023-04-20T08:18:39.406Z,26.73
2023-04-20T08:19:42.438Z,21.95
2023-04-20T08:20:46.253Z,24.60
2023-04-20T08:21:47.731Z,24.08
2023-04-20T08:22:50.608Z,24.00
2023-04-20T08:23:52.125Z,24.23
2023-04-20T08:24:53.648Z,24.02
2023-04-20T08:25:55.208Z,23.13
2023-04-20T08:26:56.641Z,23.80
2023-04-20T08:27:58.638Z,23.30
2023-04-20T08:30:04.327Z,22.98
2023-04-20T08:31:06.223Z,23.73
2023-04-20T08:32:12.416Z,24.95
2023-04-20T08:33:13.974Z,22.23
2023-04-20T08:34:15.465Z,22.88
2023-04-20T08:35:17.033Z,20.75
2023-04-20T08:36:18.932Z,22.15
2023-04-20T08:37:20.788Z,24.77
2023-04-20T08:38:32.871Z,25.42
2023-04-20T08:39:36.400Z,24.17
2023-04-20T08:40:38.011Z,23.05
2023-04-20T08:41:39.594Z,23.48
2023-04-20T08:42:41.075Z,25.02
2023-04-20T08:43:42.595Z,24.02
2023-04-20T08:44:44.085Z,25.77
2023-04-20T08:45:49.535Z,25.20
2023-04-20T08:46:51.376Z,26.92
2023-04-20T08:48:55.872Z,25.88
2023-04-20T08:49:59.721Z,20.77
2023-04-20T08:51:03.294Z,25.30
2023-04-20T08:52:05.123Z,21.88
2023-04-20T08:53:06.565Z,21.15
2023-04-20T08:54:08.035Z,23.33
2023-04-20T08:55:09.671Z,21.17
2023-04-20T08:56:11.388Z,21.80
2023-04-20T08:57:12.807Z,20.95
2023-04-20T08:58:14.649Z,19.25
2023-04-20T08:59:16.847Z,25.35
2023-04-20T09:00:18.622Z,21.05
2023-04-20T09:01:34.697Z,21.40
2023-04-20T09:02:48.719Z,19.88
2023-04-20T09:03:50.505Z,22.83
2023-04-20T09:05:05.039Z,21.90
2023-04-20T09:06:15.178Z,23.13
2023-04-20T09:07:18.733Z,20.48
2023-04-20T09:08:20.134Z,20.42
2023-04-20T09:09:23.842Z,22.63
2023-04-20T09:10:26.892Z,23.15
2023-04-20T09:11:29.789Z,23.02
2023-04-20T09:12:41.838Z,21.38
2023-04-20T09:13:43.288Z,25.70
2023-04-20T09:14:46.869Z,24.02
2023-04-20T09:15:48.426Z,22.08
2023-04-20T09:16:52.317Z,26.23
2023-04-20T09:17:53.912Z,23.90
2023-04-20T09:18:56.576Z,22.35
2023-04-20T09:19:58.066Z,24.55
2023-04-20T09:21:08.115Z,20.83
2023-04-20T09:22:09.561Z,20.55
2023-04-20T09:23:15.568Z,21.73
2023-04-20T09:24:17.352Z,21.92
2023-04-20T09:25:19.988Z,22.48
2023-04-20T09:26:21.717Z,22.13
2023-04-20T09:27:23.696Z,21.00
2023-04-20T09:29:36.828Z,23.02
2023-04-20T09:30:43.895Z,22.45
2023-04-20T09:31:45.652Z,20.33
2023-04-20T09:32:47.197Z,23.63
2023-04-20T09:34:02.578Z,22.25
2023-04-20T09:35:04.180Z,22.63
2023-04-20T09:36:06.258Z,25.88
2023-04-20T09:37:09.621Z,26.52
2023-04-20T09:38:16.062Z,23.92
2023-04-20T09:39:19.840Z,21.98
2023-04-20T09:40:22.709Z,22.33
2023-04-20T09:41:24.277Z,24.83
2023-04-20T09:42:28.024Z,21.67
2023-04-20T09:43:32.997Z,22.85
2023-04-20T09:44:37.834Z,27.45
2023-04-20T09:45:39.807Z,21.15
2023-04-20T09:47:44.426Z,25.95
2023-04-20T09:48:46.288Z,26.40
2023-04-20T09:49:47.978Z,23.13
2023-04-20T09:50:51.004Z,23.52
2023-04-20T09:51:53.433Z,23.48
2023-04-20T09:52:55.190Z,22.20
2023-04-20T09:53:58.029Z,21.90
2023-04-20T09:54:59.648Z,22.15
2023-04-20T09:56:01.469Z,20.65
2023-04-20T09:57:04.173Z,23.42
2023-04-20T09:58:06.160Z,23.85
2023-04-20T10:00:10.641Z,25.92
2023-04-20T10:01:12.190Z,21.98
2023-04-20T10:02:14.147Z,23.65
2023-04-20T10:03:20.039Z,23.63
2023-04-20T10:04:22.084Z,24.38
2023-04-20T10:05:39.344Z,23.25
2023-04-20T10:06:52.556Z,20.38
2023-04-20T10:07:59.497Z,23.17
2023-04-20T10:09:02.454Z,20.48
2023-04-20T10:10:09.704Z,20.80
2023-04-20T10:11:11.642Z,22.42
2023-04-20T10:13:19.106Z,19.17
2023-04-20T10:14:25.860Z,21.05
2023-04-20T10:15:41.768Z,23.02
2023-04-20T10:16:44.619Z,19.58
2023-04-20T10:17:46.372Z,19.00
2023-04-20T10:19:09.177Z,20.08
2023-04-20T10:20:24.288Z,19.58
2023-04-20T10:21:25.770Z,18.20
2023-04-20T10:22:33.030Z,20.88
2023-04-20T10:23:34.811Z,18.83
2023-04-20T10:24:38.291Z,19.15
2023-04-20T10:25:40.162Z,18.00
2023-04-20T10:26:44.992Z,17.80
2023-04-20T10:27:57.175Z,18.92
2023-04-20T10:28:58.604Z,16.92
2023-04-20T10:30:10.686Z,18.80
2023-04-20T10:31:13.942Z,16.65
2023-04-20T10:32:25.617Z,20.20
2023-04-20T10:33:27.201Z,20.15
2023-04-20T10:34:35.733Z,17.27
2023-04-20T10:35:45.709Z,17.70
2023-04-20T10:36:47.548Z,16.30
2023-04-20T10:37:50.712Z,19.52
2023-04-20T10:38:53.254Z,17.02
2023-04-20T10:39:54.708Z,15.50
2023-04-20T10:40:56.246Z,16.08
2023-04-20T10:42:04.215Z,18.48
2023-04-20T10:44:19.186Z,16.00
2023-04-20T10:45:35.147Z,16.63
2023-04-20T10:46:36.754Z,19.50
2023-04-20T10:47:40.644Z,17.42
2023-04-20T10:49:01.153Z,16.13
2023-04-20T10:50:15.936Z,17.30
2023-04-20T10:51:17.849Z,19.67
2023-04-20T10:53:33.130Z,16.48
2023-04-20T10:54:39.654Z,17.65
2023-04-20T10:55:41.440Z,19.02
2023-04-20T10:56:52.677Z,19.63
2023-04-20T10:57:54.319Z,16.10
2023-04-20T10:59:06.421Z,19.08
2023-04-20T11:00:18.740Z,16.65
2023-04-20T11:01:20.759Z,15.88
2023-04-20T11:02:22.439Z,17.95
2023-04-20T11:03:24.102Z,16.33
2023-04-20T11:04:32.498Z,23.27
2023-04-20T11:05:34.169Z,21.27
2023-04-20T11:06:35.901Z,15.70
2023-04-20T11:07:57.033Z,16.60
2023-04-20T11:08:58.566Z,16.83
2023-04-20T11:10:00.200Z,18.52
2023-04-20T11:11:01.651Z,16.95
2023-04-20T11:12:07.664Z,14.93
2023-04-20T11:13:30.699Z,16.80
2023-04-20T11:14:34.346Z,15.45
2023-04-20T11:15:36.216Z,15.82
2023-04-20T11:16:49.676Z,15.02
2023-04-20T11:17:53.257Z,15.65
2023-04-20T11:18:56.371Z,16.63
2023-04-20T11:20:12.160Z,15.35
2023-04-20T11:21:13.798Z,19.17
2023-04-20T11:22:23.356Z,15.98
2023-04-20T11:23:27.824Z,19.17
2023-04-20T11:24:31.655Z,14.73
2023-04-20T11:25:33.119Z,15.88
2023-04-20T11:26:38.212Z,17.55
2023-04-20T11:27:40.842Z,15.90
2023-04-20T11:28:54.499Z,16.60
2023-04-20T11:29:58.426Z,16.50
2023-04-20T11:31:00.312Z,15.95
2023-04-20T11:33:05.995Z,18.45
2023-04-20T11:34:17.546Z,18.08
2023-04-20T11:35:19.369Z,21.45
2023-04-20T11:36:22.698Z,16.13
2023-04-20T11:37:24.207Z,17.10
2023-04-20T11:38:33.096Z,17.42
2023-04-20T11:39:34.618Z,18.58
2023-04-20T11:40:36.453Z,17.67
2023-04-20T11:41:38.999Z,18.95
2023-04-20T11:42:40.429Z,18.38
2023-04-20T11:43:43.412Z,16.92
2023-04-20T11:44:44.852Z,17.38
2023-04-20T11:45:46.602Z,17.23
2023-04-20T11:46:49.252Z,18.38
2023-04-20T11:47:52.545Z,18.08
2023-04-20T11:48:54.042Z,20.13
2023-04-20T11:49:55.810Z,17.35
2023-04-20T11:50:58.228Z,15.88
2023-04-20T11:51:59.720Z,17.20
2023-04-20T11:53:01.147Z,17.25
2023-04-20T11:54:02.713Z,17.90
2023-04-20T11:55:04.624Z,17.27
2023-04-20T11:57:07.783Z,19.55
2023-04-20T11:58:09.350Z,17.92
2023-04-20T11:59:11.950Z,19.30
2023-04-20T12:00:14.147Z,17.08
2023-04-20T12:01:16.946Z,15.98
2023-04-20T12:02:18.503Z,18.92
2023-04-20T12:03:20.188Z,17.73
2023-04-20T12:04:21.828Z,20.05
2023-04-20T12:05:23.629Z,18.38
2023-04-20T12:06:25.241Z,17.90
2023-04-20T12:07:26.909Z,17.65
2023-04-20T12:08:28.488Z,16.27
2023-04-20T12:09:30.588Z,16.20
2023-04-20T12:10:32.129Z,16.85
2023-04-20T12:11:33.593Z,20.33
2023-04-20T12:12:35.115Z,18.48
2023-04-20T12:13:36.595Z,18.25
2023-04-20T12:14:38.058Z,21.75
2023-04-20T12:15:39.520Z,22.70
2023-04-20T12:16:41.102Z,22.50
2023-04-20T12:17:43.092Z,18.63
2023-04-20T12:18:44.897Z,17.17
2023-04-20T12:19:47.109Z,23.00
2023-04-20T12:20:50.169Z,16.17
2023-04-20T12:21:51.641Z,18.92
2023-04-20T12:22:53.090Z,18.05
2023-04-20T12:23:54.970Z,19.55
2023-04-20T12:25:57.701Z,17.08
2023-04-20T12:26:59.376Z,21.02
2023-04-20T12:28:05.657Z,18.65
2023-04-20T12:29:07.589Z,17.35
2023-04-20T12:30:09.568Z,18.77
2023-04-20T12:32:12.894Z,19.83
2023-04-20T12:33:14.432Z,19.80
2023-04-20T12:34:16.170Z,18.55
2023-04-20T12:35:17.844Z,20.75
2023-04-20T12:36:19.257Z,19.52
2023-04-20T12:37:20.924Z,21.27
2023-04-20T12:38:22.380Z,19.70
2023-04-20T12:39:24.102Z,20.77
2023-04-20T12:40:25.702Z,20.05
2023-04-20T12:41:27.361Z,20.08
2023-04-20T12:42:28.837Z,18.35
2023-04-20T12:43:31.500Z,22.35
2023-04-20T12:44:32.944Z,21.20
2023-04-20T12:45:34.648Z,18.92
2023-04-20T12:46:36.155Z,22.65
2023-04-20T12:47:37.688Z,20.38
2023-04-20T12:48:39.126Z,21.58
2023-04-20T12:49:40.631Z,18.98
2023-04-20T12:50:42.342Z,21.83
2023-04-20T12:51:43.818Z,18.80
2023-04-20T12:52:45.263Z,21.73
2023-04-20T12:53:46.723Z,18.95
2023-04-20T12:54:48.165Z,17.65
2023-04-20T12:55:55.044Z,19.25
2023-04-20T12:57:02.512Z,20.33
2023-04-20T12:59:05.603Z,18.88
2023-04-20T13:00:07.968Z,20.92
2023-04-20T13:01:09.885Z,17.27
2023-04-20T13:02:11.906Z,22.13
2023-04-20T13:03:13.472Z,19.90
2023-04-20T13:04:16.036Z,22.25
2023-04-20T13:05:17.895Z,18.92
2023-04-20T13:06:19.322Z,19.70
2023-04-20T13:07:20.732Z,17.73
2023-04-20T13:08:22.219Z,17.95
2023-04-20T13:09:26.871Z,19.00
2023-04-20T13:10:28.416Z,18.15
2023-04-20T13:11:30.543Z,23.13
2023-04-20T13:12:32.011Z,20.20
2023-04-20T13:13:33.526Z,23.95
2023-04-20T13:14:35.042Z,21.20
2023-04-20T13:15:39.092Z,18.25
2023-04-20T13:16:41.128Z,20.40
2023-04-20T13:17:42.610Z,17.85
2023-04-20T13:18:44.126Z,23.83
2023-04-20T13:19:49.352Z,19.35
2023-04-20T13:20:50.889Z,19.55
2023-04-20T13:21:52.285Z,17.50
2023-04-20T13:22:57.753Z,17.58
2023-04-20T13:23:59.808Z,17.40
2023-04-20T13:25:01.271Z,17.77
2023-04-20T13:26:02.749Z,19.73
2023-04-20T13:27:04.634Z,20.08
2023-04-20T13:29:08.223Z,20.17
2023-04-20T13:30:10.155Z,17.85
2023-04-20T13:32:13.626Z,18.13
2023-04-20T13:33:15.104Z,18.15
2023-04-20T13:34:17.181Z,19.08
2023-04-20T13:35:19.265Z,18.67
2023-04-20T13:36:24.309Z,19.92
2023-04-20T13:37:25.802Z,19.92
2023-04-20T13:38:27.239Z,19.08
2023-04-20T13:39:29.302Z,20.80
2023-04-20T13:40:30.824Z,19.88
2023-04-20T13:41:32.343Z,19.40
2023-04-20T13:42:34.042Z,19.45
2023-04-20T13:43:35.565Z,20.48
2023-04-20T13:44:36.992Z,19.95
2023-04-20T13:45:38.747Z,18.90
2023-04-20T13:46:40.312Z,20.27
2023-04-20T13:47:41.838Z,21.55
2023-04-20T13:48:43.346Z,19.65
2023-04-20T13:49:44.791Z,17.38
2023-04-20T13:50:47.400Z,17.50
2023-04-20T13:51:49.894Z,19.52
2023-04-20T13:52:51.482Z,18.02